Portada
METAR-TAF:

METAR-TAF

Aeroports :

Phrae, Tailàndia

latitud: 18-10N, longitud: 100-10E, altitud: 161 m

Observació

L'informe es va fer fa 10 hores i 1 minuts, a les 10:00 UTC
Vent 2 kt amb direcció variable
Temperatura 27°C
Humitat 66%
Pressió 1012 hPa
Visibilitat 10 km o més
Escasses núvols a una alçada de 2000 ft
Cel ennuvolat a una alçada de 10000 ft

METAR: VTCP 101000Z VRB02KT 9999 FEW020 BKN100 27/20 Q1012 NOSIG

Hora: 03:01 (20:01 UTC)

Pronòstic

L'informe es va fer fa 3 hores i 1 minuts, a les 17:00 UTC
Pronòstic vàlid del 10 a les 18 UTC al 11 a les 18 UTC
Vent 5 kt del Sud/Sud-Oest
Visibilitat 10 km o més
Núvols disperses a una alçada de 2500 ft
Evolucionant progressivament
l' 10 a les 21 UTC al 10 a les 23 UTC
Visibilitat: 2000 m
boirina
Evolucionant progressivament
l' 11 a les 01 UTC al 11 a les 03 UTC
Visibilitat 10 km o més

TAF: VTCP 101700Z 1018/1118 20005KT 9999 SCT025 BECMG 1021/1023 2000 BR BECMG 1101/1103 9999 NSW

Observacions i pronòstics meteorològics de més de 4000 aeroports (METAR i TAF).

Les estacions disponibles són els punts grocs i vermells al mapa.

Posi el ratolí al punt desitjat per veure el nom de l'estació.

Feu clic per veure les observacions i els pronòstics meteorològics.

Per canviar el mapa: feu clic els botons verds amb una creu de color negre per apropar; al botó verd amb un guió per allunyar la imatge; o en les fletxes verdes per a mapes adjacents.


METAR-TAF: